createdAt,value
2024-04-19T00:00:23.358Z,24.19
2024-04-19T00:01:23.405Z,24.21
2024-04-19T00:02:23.371Z,24.19
2024-04-19T00:03:23.565Z,24.16
2024-04-19T00:04:23.562Z,24.18
2024-04-19T00:05:23.501Z,24.19
2024-04-19T00:06:23.558Z,24.19
2024-04-19T00:07:23.584Z,24.19
2024-04-19T00:08:23.647Z,24.19
2024-04-19T00:09:23.695Z,24.19
2024-04-19T00:10:23.706Z,24.19
2024-04-19T00:11:23.899Z,24.21
2024-04-19T00:12:23.856Z,24.16
2024-04-19T00:13:23.848Z,24.18
2024-04-19T00:14:23.869Z,24.18
2024-04-19T00:15:23.936Z,24.18
2024-04-19T00:16:23.998Z,24.18
2024-04-19T00:17:24.006Z,24.19
2024-04-19T00:18:24.088Z,24.18
2024-04-19T00:19:24.099Z,24.19
2024-04-19T00:20:24.110Z,24.16
2024-04-19T00:21:24.169Z,24.16
2024-04-19T00:22:24.212Z,24.19
2024-04-19T00:23:24.238Z,24.16
2024-04-19T00:24:24.271Z,24.18
2024-04-19T00:25:24.255Z,24.19
2024-04-19T00:26:24.284Z,24.18
2024-04-19T00:27:24.393Z,24.18
2024-04-19T00:28:24.355Z,24.18
2024-04-19T00:29:24.356Z,24.18
2024-04-19T00:30:24.386Z,24.16
2024-04-19T00:31:24.409Z,24.15
2024-04-19T00:32:24.442Z,24.15
2024-04-19T00:33:24.540Z,24.15
2024-04-19T00:34:24.567Z,24.16
2024-04-19T00:35:24.456Z,24.16
2024-04-19T00:36:24.554Z,24.16
2024-04-19T00:37:25.314Z,24.18
2024-04-19T00:38:24.565Z,24.18
2024-04-19T00:39:24.695Z,24.18
2024-04-19T00:40:24.652Z,24.13
2024-04-19T00:41:24.677Z,24.16
2024-04-19T00:42:24.677Z,24.16
2024-04-19T00:43:24.774Z,24.15
2024-04-19T00:44:24.818Z,24.16
2024-04-19T00:45:24.794Z,24.15
2024-04-19T00:46:24.795Z,24.13
2024-04-19T00:47:24.878Z,24.12
2024-04-19T00:48:24.885Z,24.15
2024-04-19T00:49:24.864Z,24.13
2024-04-19T00:50:24.899Z,24.13
2024-04-19T00:51:24.993Z,24.13
2024-04-19T00:52:24.952Z,24.15
2024-04-19T00:53:25.013Z,24.13
2024-04-19T00:54:25.101Z,24.13
2024-04-19T00:55:25.040Z,24.12
2024-04-19T00:56:25.060Z,24.15
2024-04-19T00:57:25.140Z,24.15
2024-04-19T00:58:25.122Z,24.12
2024-04-19T00:59:25.160Z,24.15
2024-04-19T01:00:25.244Z,24.13
2024-04-19T01:01:25.267Z,24.15
2024-04-19T01:02:25.261Z,24.13
2024-04-19T01:03:25.266Z,24.13
2024-04-19T01:04:25.241Z,24.13
2024-04-19T01:05:25.264Z,24.16
2024-04-19T01:06:25.283Z,24.15
2024-04-19T01:07:25.259Z,24.13
2024-04-19T01:08:25.271Z,24.13
2024-04-19T01:09:25.274Z,24.12
2024-04-19T01:10:25.255Z,24.12
2024-04-19T01:11:25.294Z,24.12
2024-04-19T01:12:25.841Z,24.15
2024-04-19T01:13:25.270Z,24.12
2024-04-19T01:14:25.292Z,24.13
2024-04-19T01:15:25.331Z,24.11
2024-04-19T01:16:25.318Z,24.13
2024-04-19T01:17:25.315Z,24.09
2024-04-19T01:18:25.405Z,24.12
2024-04-19T01:19:25.319Z,24.12
2024-04-19T01:20:25.335Z,24.09
2024-04-19T01:21:25.361Z,24.12
2024-04-19T01:22:25.318Z,24.13
2024-04-19T01:23:25.342Z,24.11
2024-04-19T01:24:25.373Z,24.11
2024-04-19T01:25:25.312Z,24.11
2024-04-19T01:26:25.324Z,24.11
2024-04-19T01:27:25.380Z,24.15
2024-04-19T01:28:25.349Z,24.12
2024-04-19T01:29:25.349Z,24.09
2024-04-19T01:30:25.430Z,24.08
2024-04-19T01:31:25.355Z,24.09
2024-04-19T01:32:25.430Z,24.09
2024-04-19T01:33:25.575Z,24.09
2024-04-19T01:34:25.444Z,24.08
2024-04-19T01:35:25.405Z,24.11
2024-04-19T01:36:25.441Z,24.11
2024-04-19T01:37:25.406Z,24.13
2024-04-19T01:38:25.419Z,24.11
2024-04-19T01:39:25.463Z,24.12
2024-04-19T01:40:25.420Z,24.09
2024-04-19T01:41:25.453Z,24.11
2024-04-19T01:42:25.490Z,24.11
2024-04-19T01:43:25.455Z,24.09
2024-04-19T01:44:25.442Z,24.09
2024-04-19T01:45:25.536Z,24.08
2024-04-19T01:46:25.470Z,24.11
2024-04-19T01:47:25.532Z,24.08
2024-04-19T01:48:25.545Z,24.12
2024-04-19T01:49:25.467Z,24.09
2024-04-19T01:50:25.496Z,24.09
2024-04-19T01:51:25.529Z,24.08
2024-04-19T01:52:25.504Z,24.09
2024-04-19T01:53:25.506Z,24.08
2024-04-19T01:54:25.519Z,24.09
2024-04-19T01:55:25.525Z,24.08
2024-04-19T01:56:25.510Z,24.09
2024-04-19T01:57:25.555Z,24.08
2024-04-19T01:58:25.550Z,24.12
2024-04-19T01:59:25.542Z,24.07
2024-04-19T02:00:25.563Z,24.08
2024-04-19T02:01:25.623Z,24.07
2024-04-19T02:02:25.622Z,24.07
2024-04-19T02:03:25.618Z,24.08
2024-04-19T02:04:25.644Z,24.07
2024-04-19T02:05:25.579Z,24.05
2024-04-19T02:06:25.617Z,24.05
2024-04-19T02:07:25.647Z,24.07
2024-04-19T02:08:25.628Z,24.07
2024-04-19T02:09:25.680Z,24.04
2024-04-19T02:10:25.627Z,24.07
2024-04-19T02:11:25.664Z,24.05
2024-04-19T02:12:25.736Z,24.07
2024-04-19T02:13:25.684Z,24.05
2024-04-19T02:14:25.668Z,24.04
2024-04-19T02:15:25.710Z,24.07
2024-04-19T02:16:25.664Z,24.05
2024-04-19T02:17:25.712Z,24.07
2024-04-19T02:18:25.785Z,24.05
2024-04-19T02:19:25.709Z,24.07
2024-04-19T02:20:25.707Z,24.07
2024-04-19T02:21:25.765Z,24.07
2024-04-19T02:22:25.750Z,24.08
2024-04-19T02:23:25.758Z,24.07
2024-04-19T02:24:25.792Z,24.05
2024-04-19T02:25:25.836Z,24.05
2024-04-19T02:26:25.808Z,24.05
2024-04-19T02:27:25.924Z,24.05
2024-04-19T02:28:25.815Z,24.04
2024-04-19T02:29:25.861Z,24.02
2024-04-19T02:30:25.884Z,24.04
2024-04-19T02:31:25.850Z,24.02
2024-04-19T02:32:25.942Z,24.05
2024-04-19T02:33:26.098Z,24.04
2024-04-19T02:34:25.922Z,24.04
2024-04-19T02:35:25.921Z,24.04
2024-04-19T02:36:25.918Z,24.04
2024-04-19T02:37:25.885Z,24.04
2024-04-19T02:38:25.905Z,24.04
2024-04-19T02:39:25.954Z,24.02
2024-04-19T02:40:25.933Z,24.01
2024-04-19T02:41:25.945Z,24.02
2024-04-19T02:42:25.969Z,24.04
2024-04-19T02:43:25.963Z,24.01
2024-04-19T02:44:26.000Z,24.01
2024-04-19T02:45:26.047Z,24.02
2024-04-19T02:46:26.187Z,24.02
2024-04-19T02:47:26.053Z,23.99
2024-04-19T02:48:26.054Z,24.02
2024-04-19T02:49:26.056Z,24.01
2024-04-19T02:50:26.072Z,24.02
2024-04-19T02:51:26.170Z,24.02
2024-04-19T02:52:26.137Z,24.01
2024-04-19T02:53:26.140Z,24.01
2024-04-19T02:54:26.228Z,24.04
2024-04-19T02:55:26.137Z,24.04
2024-04-19T02:56:26.154Z,24.01
2024-04-19T02:57:26.212Z,24.02
2024-04-19T02:58:26.170Z,24.04
2024-04-19T02:59:26.193Z,24.02
2024-04-19T03:00:26.251Z,24.02
2024-04-19T03:01:26.273Z,24.04
2024-04-19T03:02:26.220Z,24.02
2024-04-19T03:03:26.347Z,24.04
2024-04-19T03:04:26.264Z,24.01
2024-04-19T03:05:26.270Z,24.01
2024-04-19T03:06:26.359Z,23.99
2024-04-19T03:07:26.266Z,23.99
2024-04-19T03:08:26.298Z,24.01
2024-04-19T03:09:26.339Z,24.02
2024-04-19T03:10:26.298Z,24.02
2024-04-19T03:11:26.363Z,24.01
2024-04-19T03:12:26.359Z,24.01
2024-04-19T03:13:26.383Z,23.99
2024-04-19T03:14:26.393Z,23.99
2024-04-19T03:15:26.414Z,23.99
2024-04-19T03:16:26.385Z,23.98
2024-04-19T03:17:26.426Z,23.99
2024-04-19T03:18:26.581Z,23.99
2024-04-19T03:19:26.418Z,24.01
2024-04-19T03:20:26.456Z,23.99
2024-04-19T03:21:26.466Z,23.99
2024-04-19T03:22:26.468Z,24.01
2024-04-19T03:23:26.480Z,23.99
2024-04-19T03:24:26.527Z,23.97
2024-04-19T03:25:26.475Z,23.99
2024-04-19T03:26:26.508Z,23.99
2024-04-19T03:27:26.561Z,24.01
2024-04-19T03:28:26.563Z,23.99
2024-04-19T03:29:26.561Z,23.97
2024-04-19T03:30:26.656Z,23.98
2024-04-19T03:31:26.599Z,23.97
2024-04-19T03:32:26.799Z,23.99
2024-04-19T03:33:26.663Z,23.98
2024-04-19T03:34:26.620Z,23.98
2024-04-19T03:35:26.621Z,23.98
2024-04-19T03:36:26.710Z,23.99
2024-04-19T03:37:26.637Z,23.95
2024-04-19T03:38:26.667Z,23.99
2024-04-19T03:39:26.856Z,23.99
2024-04-19T03:40:26.685Z,23.98
2024-04-19T03:41:26.691Z,23.98
2024-04-19T03:42:26.744Z,23.97
2024-04-19T03:43:26.721Z,23.97
2024-04-19T03:44:26.728Z,23.97
2024-04-19T03:45:26.796Z,23.97
2024-04-19T03:46:26.745Z,23.97
2024-04-19T03:47:26.796Z,23.97
2024-04-19T03:48:26.856Z,23.95
2024-04-19T03:49:26.812Z,23.94
2024-04-19T03:50:26.849Z,23.94
2024-04-19T03:51:26.826Z,23.97
2024-04-19T03:52:26.847Z,23.98
2024-04-19T03:53:26.849Z,23.98
2024-04-19T03:54:26.908Z,23.95
2024-04-19T03:55:26.892Z,23.97
2024-04-19T03:56:28.868Z,23.97
2024-04-19T03:57:26.940Z,23.97
2024-04-19T03:58:26.902Z,23.97
2024-04-19T03:59:26.966Z,23.97
2024-04-19T04:00:27.051Z,23.98
2024-04-19T04:01:26.994Z,23.98
2024-04-19T04:02:29.156Z,23.95
2024-04-19T04:03:27.008Z,23.97
2024-04-19T04:04:27.080Z,23.94
2024-04-19T04:05:27.038Z,23.97
2024-04-19T04:06:27.074Z,23.98
2024-04-19T04:07:27.058Z,23.97
2024-04-19T04:08:27.081Z,23.97
2024-04-19T04:09:27.132Z,23.97
2024-04-19T04:10:27.081Z,23.98
2024-04-19T04:11:27.150Z,23.97
2024-04-19T04:12:27.156Z,23.99
2024-04-19T04:13:27.168Z,23.95
2024-04-19T04:14:27.149Z,23.97
2024-04-19T04:15:27.226Z,23.97
2024-04-19T04:16:27.181Z,23.98
2024-04-19T04:17:27.267Z,23.97
2024-04-19T04:18:27.332Z,23.99
2024-04-19T04:19:27.284Z,23.97
2024-04-19T04:20:34.444Z,23.94
2024-04-19T04:21:34.440Z,23.94
2024-04-19T04:22:34.463Z,23.97
2024-04-19T04:23:34.426Z,23.97
2024-04-19T04:24:34.514Z,23.97
2024-04-19T04:25:34.446Z,23.97
2024-04-19T04:26:34.427Z,23.95
2024-04-19T04:27:34.493Z,23.98
2024-04-19T04:28:34.445Z,23.99
2024-04-19T04:29:34.440Z,23.97
2024-04-19T04:30:34.463Z,23.97
2024-04-19T04:31:41.660Z,23.92
2024-04-19T04:32:41.655Z,23.97
2024-04-19T04:33:41.673Z,23.94
2024-04-19T04:34:41.648Z,23.94
2024-04-19T04:35:41.627Z,23.97
2024-04-19T04:36:41.695Z,23.94
2024-04-19T04:37:41.660Z,23.94
2024-04-19T04:38:41.673Z,23.98
2024-04-19T04:39:41.731Z,23.94
2024-04-19T04:40:41.656Z,23.98
2024-04-19T04:41:41.667Z,23.97
2024-04-19T04:42:41.684Z,23.94
2024-04-19T04:43:41.667Z,23.95
2024-04-19T04:44:41.656Z,23.97
2024-04-19T04:45:41.661Z,23.97
2024-04-19T04:46:41.670Z,23.95
2024-04-19T04:47:41.701Z,23.97
2024-04-19T04:48:41.740Z,23.97
2024-04-19T04:49:41.663Z,23.95
2024-04-19T04:50:41.688Z,23.99
2024-04-19T04:51:41.694Z,23.95
2024-04-19T04:52:41.679Z,23.98
2024-04-19T04:53:41.658Z,23.97
2024-04-19T04:54:41.727Z,23.97
2024-04-19T04:55:41.669Z,23.95
2024-04-19T04:56:41.679Z,23.95
2024-04-19T04:57:41.674Z,23.97
2024-04-19T04:58:41.677Z,23.97
2024-04-19T04:59:41.698Z,23.97
2024-04-19T05:00:41.717Z,23.97
2024-04-19T05:01:41.727Z,23.97
2024-04-19T05:02:41.669Z,23.95
2024-04-19T05:03:41.708Z,23.97
2024-04-19T05:04:41.692Z,23.97
2024-04-19T05:05:41.664Z,23.95
2024-04-19T05:06:41.706Z,23.98
2024-04-19T05:07:41.691Z,23.98
2024-04-19T05:08:41.679Z,23.95
2024-04-19T05:09:41.694Z,23.99
2024-04-19T05:10:41.703Z,23.98
2024-04-19T05:11:41.763Z,23.99
2024-04-19T05:12:41.697Z,24.01
2024-04-19T05:13:41.669Z,23.98
2024-04-19T05:14:41.721Z,23.99
2024-04-19T05:15:41.713Z,23.98
2024-04-19T05:16:41.665Z,23.99
2024-04-19T05:17:41.707Z,23.99
2024-04-19T05:18:41.835Z,23.98
2024-04-19T05:19:41.784Z,24.01
2024-04-19T05:20:41.687Z,23.98
2024-04-19T05:21:41.774Z,24.02
2024-04-19T05:22:41.728Z,23.99
2024-04-19T05:23:41.690Z,24.01
2024-04-19T05:24:41.708Z,24.01
2024-04-19T05:25:41.710Z,23.99
2024-04-19T05:26:41.740Z,23.98
2024-04-19T05:27:41.699Z,24.02
2024-04-19T05:28:41.799Z,24.01
2024-04-19T05:29:41.746Z,23.99
2024-04-19T05:30:41.857Z,24.02
2024-04-19T05:31:41.811Z,24.01
2024-04-19T05:32:41.777Z,23.99
2024-04-19T05:33:41.923Z,23.97
2024-04-19T05:34:41.814Z,23.97
2024-04-19T05:35:41.804Z,23.98
2024-04-19T05:36:41.782Z,24.02
2024-04-19T05:37:41.716Z,24.05
2024-04-19T05:38:41.706Z,24.11
2024-04-19T05:39:41.754Z,24.18
2024-04-19T05:40:41.772Z,24.22
2024-04-19T05:41:41.740Z,24.25
2024-04-19T05:42:42.264Z,24.33
2024-04-19T05:43:41.720Z,24.33
2024-04-19T05:44:41.729Z,24.39
2024-04-19T05:45:41.822Z,24.39
2024-04-19T05:46:41.709Z,24.42
2024-04-19T05:47:41.810Z,24.40
2024-04-19T05:48:41.908Z,24.42
2024-04-19T05:49:41.770Z,24.40
2024-04-19T05:50:41.795Z,24.42
2024-04-19T05:51:41.769Z,24.40
2024-04-19T05:52:41.729Z,24.40
2024-04-19T05:53:41.735Z,24.38
2024-04-19T05:54:41.791Z,24.38
2024-04-19T05:55:42.264Z,24.36
2024-04-19T05:56:41.869Z,24.32
2024-04-19T05:57:42.001Z,24.32
2024-04-19T05:58:41.998Z,24.32
2024-04-19T05:59:42.125Z,24.31
2024-04-19T06:00:42.195Z,24.31
2024-04-19T06:01:43.448Z,24.31
2024-04-19T06:02:42.337Z,24.29
2024-04-19T06:03:42.421Z,24.26
2024-04-19T06:04:42.388Z,24.26
2024-04-19T06:05:43.278Z,24.26
2024-04-19T06:06:42.614Z,24.25
2024-04-19T06:07:43.268Z,24.23
2024-04-19T06:08:42.742Z,24.21
2024-04-19T06:09:42.790Z,24.21
2024-04-19T06:10:43.301Z,24.21
2024-04-19T06:11:42.930Z,24.19
2024-04-19T06:12:42.994Z,24.16
2024-04-19T06:13:43.074Z,24.19
2024-04-19T06:14:43.103Z,24.19
2024-04-19T06:15:43.224Z,24.16
2024-04-19T06:16:43.217Z,24.18
2024-04-19T06:17:43.368Z,24.18
2024-04-19T06:18:43.485Z,24.18
2024-04-19T06:19:43.422Z,24.18
2024-04-19T06:20:44.300Z,24.18
2024-04-19T06:21:43.616Z,24.18
2024-04-19T06:22:43.618Z,24.19
2024-04-19T06:23:43.686Z,24.15
2024-04-19T06:24:43.753Z,24.18
2024-04-19T06:25:44.286Z,24.18
2024-04-19T06:26:43.896Z,24.19
2024-04-19T06:27:44.004Z,24.22
2024-04-19T06:28:44.053Z,24.18
2024-04-19T06:29:44.138Z,24.19
2024-04-19T06:30:44.365Z,24.21
2024-04-19T06:31:44.245Z,24.21
2024-04-19T06:32:44.374Z,24.21
2024-04-19T06:33:44.393Z,24.19
2024-04-19T06:34:44.489Z,24.19
2024-04-19T06:35:44.895Z,24.19
2024-04-19T06:36:44.602Z,24.18
2024-04-19T06:37:44.603Z,24.13
2024-04-19T06:38:45.287Z,24.11
2024-04-19T06:39:54.301Z,23.99
2024-04-19T06:40:45.789Z,24.02
2024-04-19T06:41:44.692Z,24.11
2024-04-19T06:42:44.749Z,24.15
2024-04-19T06:43:44.705Z,24.21
2024-04-19T06:44:44.683Z,24.19
2024-04-19T06:45:44.936Z,24.23
2024-04-19T06:46:44.735Z,24.26
2024-04-19T06:47:44.791Z,24.28
2024-04-19T06:48:44.793Z,24.29
2024-04-19T06:49:44.700Z,24.35
2024-04-19T06:50:44.790Z,24.32
2024-04-19T06:51:44.945Z,24.32
2024-04-19T06:52:44.705Z,24.33
2024-04-19T06:53:44.778Z,24.36
2024-04-19T06:54:44.863Z,24.36
2024-04-19T06:55:44.885Z,24.39
2024-04-19T06:56:45.000Z,24.38
2024-04-19T06:57:45.063Z,24.36
2024-04-19T06:58:45.083Z,24.29
2024-04-19T06:59:45.102Z,24.26
2024-04-19T07:01:45.204Z,24.22
2024-04-19T07:02:45.130Z,24.19
2024-04-19T07:03:45.182Z,24.18
2024-04-19T07:04:45.216Z,24.18
2024-04-19T07:05:45.162Z,24.22
2024-04-19T07:06:46.967Z,24.25
2024-04-19T07:07:45.220Z,24.23
2024-04-19T07:08:45.186Z,24.23
2024-04-19T07:09:45.360Z,24.26
2024-04-19T07:10:45.218Z,24.31
2024-04-19T07:11:45.161Z,24.31
2024-04-19T07:12:45.169Z,24.33
2024-04-19T07:13:45.181Z,24.35
2024-04-19T07:14:45.301Z,24.39
2024-04-19T07:15:45.206Z,24.43
2024-04-19T07:16:45.199Z,24.45
2024-04-19T07:17:45.180Z,24.43
2024-04-19T07:18:45.244Z,24.45
2024-04-19T07:19:45.297Z,24.43
2024-04-19T07:20:45.209Z,24.48
2024-04-19T07:21:45.246Z,24.51
2024-04-19T07:22:45.201Z,24.52
2024-04-19T07:23:45.291Z,24.53
2024-04-19T07:24:45.307Z,24.49
2024-04-19T07:25:45.344Z,24.51
2024-04-19T07:26:45.199Z,24.52
2024-04-19T07:27:46.878Z,24.55
2024-04-19T07:28:45.194Z,24.58
2024-04-19T07:29:45.176Z,24.59
2024-04-19T07:30:45.236Z,24.55
2024-04-19T07:31:45.231Z,24.59
2024-04-19T07:32:45.234Z,24.58
2024-04-19T07:33:45.271Z,24.56
2024-04-19T07:34:45.302Z,24.55
2024-04-19T07:35:45.318Z,24.56
2024-04-19T07:36:45.406Z,24.59
2024-04-19T07:37:45.473Z,24.67
2024-04-19T07:38:45.512Z,24.70
2024-04-19T07:39:45.961Z,24.73
2024-04-19T07:40:46.333Z,24.58
2024-04-19T07:41:45.779Z,24.51
2024-04-19T07:42:45.662Z,24.45
2024-04-19T07:43:50.129Z,24.35
2024-04-19T07:44:46.717Z,24.43
2024-04-19T07:45:45.760Z,24.46
2024-04-19T07:46:45.719Z,24.46
2024-04-19T07:47:45.773Z,24.46
2024-04-19T07:48:45.817Z,24.40
2024-04-19T07:49:45.755Z,24.36
2024-04-19T07:50:45.721Z,24.29
2024-04-19T07:51:45.836Z,24.31
2024-04-19T07:52:45.728Z,24.26
2024-04-19T07:53:45.743Z,24.28
2024-04-19T07:54:45.888Z,24.26
2024-04-19T07:55:45.717Z,24.25
2024-04-19T07:56:45.721Z,24.22
2024-04-19T07:57:45.767Z,24.25
2024-04-19T07:58:45.734Z,24.18
2024-04-19T07:59:45.831Z,24.22
2024-04-19T08:00:45.856Z,24.23
2024-04-19T08:01:45.749Z,24.25
2024-04-19T08:02:45.736Z,24.29
2024-04-19T08:03:45.757Z,24.31
2024-04-19T08:04:45.898Z,24.31
2024-04-19T08:05:45.916Z,24.31
2024-04-19T08:06:45.769Z,24.32
2024-04-19T08:07:45.739Z,24.33
2024-04-19T08:08:45.750Z,24.40
2024-04-19T08:09:45.807Z,24.45
2024-04-19T08:10:45.742Z,24.53
2024-04-19T08:11:45.837Z,24.59
2024-04-19T08:12:45.945Z,24.63
2024-04-19T08:13:45.989Z,24.67
2024-04-19T08:14:45.941Z,24.72
2024-04-19T08:15:46.006Z,24.75
2024-04-19T08:16:46.073Z,24.77
2024-04-19T08:17:46.091Z,24.75
2024-04-19T08:18:46.147Z,24.75
2024-04-19T08:19:46.182Z,24.75
2024-04-19T08:20:46.223Z,24.76
2024-04-19T08:21:46.313Z,24.73
2024-04-19T08:22:46.358Z,24.72
2024-04-19T08:23:46.380Z,24.72
2024-04-19T08:24:46.507Z,24.69
2024-04-19T08:25:46.515Z,24.66
2024-04-19T08:26:46.577Z,24.59
2024-04-19T08:27:46.697Z,24.53
2024-04-19T08:28:46.748Z,24.49
2024-04-19T08:29:46.692Z,24.42
2024-04-19T08:30:46.735Z,24.35
2024-04-19T08:31:46.808Z,24.28
2024-04-19T08:32:47.414Z,24.21
2024-04-19T08:33:46.792Z,24.15
2024-04-19T08:34:46.782Z,24.07
2024-04-19T08:35:46.840Z,24.01
2024-04-19T08:36:46.915Z,23.97
2024-04-19T08:37:46.941Z,23.92
2024-04-19T08:38:47.026Z,23.84
2024-04-19T08:39:47.200Z,23.81
2024-04-19T08:40:47.146Z,23.72
2024-04-19T08:41:47.186Z,23.69
2024-04-19T08:42:47.324Z,23.65
2024-04-19T08:43:47.362Z,23.60
2024-04-19T08:44:47.311Z,23.60
2024-04-19T08:45:47.467Z,23.60
2024-04-19T08:46:47.440Z,23.58
2024-04-19T08:47:47.636Z,23.67
2024-04-19T08:48:47.705Z,23.72
2024-04-19T08:49:47.604Z,23.77
2024-04-19T08:50:47.883Z,23.79
2024-04-19T08:52:00.476Z,23.87
2024-04-19T08:53:09.472Z,23.94
2024-04-19T08:53:48.749Z,23.91
2024-04-19T08:54:47.734Z,23.88
2024-04-19T08:55:47.667Z,23.92
2024-04-19T08:56:47.681Z,23.92
2024-04-19T08:57:47.725Z,23.94
2024-04-19T08:58:51.026Z,23.94
2024-04-19T08:59:55.381Z,23.95
2024-04-19T09:00:48.987Z,23.95
2024-04-19T09:01:47.743Z,23.97
2024-04-19T09:02:47.749Z,23.95
2024-04-19T09:03:47.796Z,23.99
2024-04-19T09:04:47.871Z,24.01
2024-04-19T09:05:47.870Z,24.02
2024-04-19T09:06:47.763Z,24.07
2024-04-19T09:07:47.689Z,24.05
2024-04-19T09:08:47.700Z,24.15
2024-04-19T09:09:47.680Z,24.25
2024-04-19T09:10:47.702Z,24.26
2024-04-19T09:11:47.724Z,24.32
2024-04-19T09:12:47.816Z,24.35
2024-04-19T09:13:47.730Z,24.36
2024-04-19T09:14:47.787Z,24.39
2024-04-19T09:15:47.772Z,24.40
2024-04-19T09:16:47.717Z,24.40
2024-04-19T09:17:47.789Z,24.36
2024-04-19T09:18:47.798Z,24.36
2024-04-19T09:19:47.700Z,24.33
2024-04-19T09:20:47.835Z,24.39
2024-04-19T09:21:47.784Z,24.40
2024-04-19T09:22:47.730Z,24.38
2024-04-19T09:23:47.762Z,24.36
2024-04-19T09:24:47.907Z,24.40
2024-04-19T09:25:47.856Z,24.38
2024-04-19T09:26:47.847Z,24.38
2024-04-19T09:27:47.871Z,24.31
2024-04-19T09:28:47.963Z,24.35
2024-04-19T09:29:47.865Z,24.36
2024-04-19T09:30:47.968Z,24.36
2024-04-19T09:31:47.909Z,24.40
2024-04-19T09:32:48.034Z,24.40
2024-04-19T09:33:48.089Z,24.35
2024-04-19T09:34:47.947Z,24.35
2024-04-19T09:35:48.361Z,24.42
2024-04-19T09:36:48.001Z,24.52
2024-04-19T09:37:48.035Z,24.59
2024-04-19T09:38:48.108Z,24.66
2024-04-19T09:39:48.285Z,24.72
2024-04-19T09:40:48.359Z,24.77
2024-04-19T09:41:48.221Z,24.82
2024-04-19T09:42:48.440Z,24.85
2024-04-19T09:43:48.281Z,24.87
2024-04-19T09:44:48.312Z,24.89
2024-04-19T09:45:48.425Z,24.90
2024-04-19T09:46:48.428Z,24.89
2024-04-19T09:47:48.423Z,24.91
2024-04-19T09:48:48.480Z,24.94
2024-04-19T09:49:48.462Z,24.93
2024-04-19T09:50:48.488Z,24.93
2024-04-19T09:51:48.667Z,24.93
2024-04-19T09:52:48.563Z,24.91
2024-04-19T09:53:48.605Z,24.94
2024-04-19T09:54:48.696Z,24.94
2024-04-19T09:55:48.643Z,24.93
2024-04-19T09:56:48.668Z,24.93
2024-04-19T09:57:48.755Z,24.93
2024-04-19T09:58:48.737Z,24.90
2024-04-19T09:59:48.807Z,24.93
2024-04-19T10:00:49.007Z,24.89
2024-04-19T10:01:48.921Z,24.87
2024-04-19T10:02:48.883Z,24.90
2024-04-19T10:03:48.988Z,24.87
2024-04-19T10:04:49.012Z,24.90
2024-04-19T10:05:49.420Z,24.87
2024-04-19T10:06:48.960Z,24.87
2024-04-19T10:07:48.939Z,24.87
2024-04-19T10:08:48.984Z,24.90
2024-04-19T10:09:49.172Z,24.89
2024-04-19T10:10:49.127Z,24.87
2024-04-19T10:11:49.088Z,24.89
2024-04-19T10:12:49.206Z,24.87
2024-04-19T10:13:49.135Z,24.90
2024-04-19T10:14:49.194Z,24.89
2024-04-19T10:15:49.356Z,24.89
2024-04-19T10:16:49.254Z,24.90
2024-04-19T10:17:49.367Z,24.90
2024-04-19T10:18:49.386Z,24.90
2024-04-19T10:19:54.078Z,24.90
2024-04-19T10:20:50.365Z,24.90
2024-04-19T10:21:49.408Z,24.90
2024-04-19T10:22:49.367Z,24.94
2024-04-19T10:23:49.474Z,24.96
2024-04-19T10:24:49.418Z,24.93
2024-04-19T10:25:49.368Z,24.94
2024-04-19T10:26:49.467Z,24.93
2024-04-19T10:27:49.432Z,24.93
2024-04-19T10:28:49.394Z,24.96
2024-04-19T10:29:49.376Z,24.94
2024-04-19T10:30:49.468Z,24.94
2024-04-19T10:31:49.405Z,24.97
2024-04-19T10:32:49.401Z,24.94
2024-04-19T10:33:49.471Z,24.96
2024-04-19T10:34:49.360Z,24.97
2024-04-19T10:35:49.405Z,24.99
2024-04-19T10:36:49.393Z,24.97
2024-04-19T10:37:49.412Z,24.97
2024-04-19T10:38:49.368Z,24.99
2024-04-19T10:39:49.465Z,24.96
2024-04-19T10:40:49.424Z,25.00
2024-04-19T10:41:49.438Z,25.00
2024-04-19T10:42:49.397Z,25.02
2024-04-19T10:43:49.372Z,24.99
2024-04-19T10:44:49.529Z,25.00
2024-04-19T10:45:49.456Z,25.00
2024-04-19T10:46:49.495Z,25.02
2024-04-19T10:47:49.555Z,25.03
2024-04-19T10:48:49.596Z,25.03
2024-04-19T10:49:49.932Z,25.03
2024-04-19T10:50:49.508Z,25.05
2024-04-19T10:51:49.702Z,25.03
2024-04-19T10:52:49.569Z,25.05
2024-04-19T10:53:49.571Z,25.05
2024-04-19T10:54:49.648Z,25.03
2024-04-19T10:55:49.626Z,25.03
2024-04-19T10:56:49.634Z,25.02
2024-04-19T10:57:49.760Z,25.03
2024-04-19T10:58:49.685Z,25.02
2024-04-19T10:59:49.707Z,25.00
2024-04-19T11:00:49.847Z,25.00
2024-04-19T11:01:49.810Z,25.03
2024-04-19T11:02:52.168Z,24.99
2024-04-19T11:03:49.921Z,24.99
2024-04-19T11:04:49.884Z,25.00
2024-04-19T11:05:49.771Z,25.03
2024-04-19T11:06:49.833Z,25.03
2024-04-19T11:07:49.778Z,25.05
2024-04-19T11:08:49.786Z,25.06
2024-04-19T11:09:49.942Z,25.07
2024-04-19T11:10:49.799Z,25.06
2024-04-19T11:11:49.911Z,25.09
2024-04-19T11:12:49.863Z,25.07
2024-04-19T11:13:49.854Z,25.10
2024-04-19T11:14:49.793Z,25.07
2024-04-19T11:15:56.954Z,25.09
2024-04-19T11:16:50.816Z,25.11
2024-04-19T11:17:49.979Z,25.10
2024-04-19T11:18:49.960Z,25.11
2024-04-19T11:19:49.794Z,25.10
2024-04-19T11:20:56.866Z,25.10
2024-04-19T11:21:50.978Z,25.11
2024-04-19T11:22:49.833Z,25.13
2024-04-19T11:23:52.055Z,25.10
2024-04-19T11:24:49.826Z,25.09
2024-04-19T11:25:49.807Z,25.13
2024-04-19T11:26:49.828Z,25.13
2024-04-19T11:27:49.939Z,25.11
2024-04-19T11:28:49.892Z,25.11
2024-04-19T11:29:49.865Z,25.14
2024-04-19T11:30:49.975Z,25.13
2024-04-19T11:31:49.917Z,25.11
2024-04-19T11:32:49.898Z,25.11
2024-04-19T11:33:49.937Z,25.13
2024-04-19T11:34:49.941Z,25.10
2024-04-19T11:35:49.977Z,25.07
2024-04-19T11:36:50.015Z,25.07
2024-04-19T11:37:50.028Z,25.05
2024-04-19T11:38:50.051Z,25.07
2024-04-19T11:39:50.109Z,25.09
2024-04-19T11:40:50.113Z,25.07
2024-04-19T11:41:50.111Z,25.06
2024-04-19T11:42:50.155Z,25.06
2024-04-19T11:43:50.193Z,25.06
2024-04-19T11:44:50.171Z,25.06
2024-04-19T11:45:50.248Z,25.03
2024-04-19T11:46:50.482Z,25.05
2024-04-19T11:47:50.346Z,25.03
2024-04-19T11:48:50.347Z,25.06
2024-04-19T11:49:50.287Z,25.03
2024-04-19T11:50:50.320Z,25.07
2024-04-19T11:51:50.381Z,25.06
2024-04-19T11:52:50.332Z,25.06
2024-04-19T11:53:50.356Z,25.07
2024-04-19T11:54:50.478Z,25.06
2024-04-19T11:55:50.397Z,25.07
2024-04-19T11:56:50.424Z,25.09
2024-04-19T11:57:51.759Z,25.10
2024-04-19T11:58:50.421Z,25.09
2024-04-19T11:59:50.458Z,25.10
2024-04-19T12:00:50.544Z,25.10
2024-04-19T12:01:50.528Z,25.07
2024-04-19T12:02:50.563Z,25.07
2024-04-19T12:03:50.761Z,25.09
2024-04-19T12:04:50.718Z,25.10
2024-04-19T12:05:50.553Z,25.07
2024-04-19T12:06:50.652Z,25.09
2024-04-19T12:07:50.593Z,25.07
2024-04-19T12:08:50.608Z,25.09
2024-04-19T12:09:50.669Z,25.10
2024-04-19T12:10:50.647Z,25.07
2024-04-19T12:13:29.870Z,25.07
2024-04-19T12:14:39.125Z,25.05
2024-04-19T12:15:42.826Z,25.05
2024-04-19T12:16:29.569Z,25.03
2024-04-19T12:16:57.846Z,25.00
2024-04-19T12:17:51.892Z,25.00
2024-04-19T12:18:50.904Z,24.99
2024-04-19T12:19:50.942Z,24.96
2024-04-19T12:20:52.252Z,24.96
2024-04-19T12:21:51.319Z,24.96
2024-04-19T12:22:59.524Z,24.94
2024-04-19T12:23:52.689Z,24.96
2024-04-19T12:24:51.161Z,24.93
2024-04-19T12:25:51.655Z,24.93
2024-04-19T12:26:50.910Z,24.93
2024-04-19T12:27:50.907Z,24.91
2024-04-19T12:28:54.851Z,24.94
2024-04-19T12:29:51.827Z,24.91
2024-04-19T12:30:50.952Z,24.93
2024-04-19T12:31:50.799Z,24.91
2024-04-19T12:32:50.842Z,24.90
2024-04-19T12:33:50.892Z,24.90
2024-04-19T12:34:50.787Z,24.90
2024-04-19T12:35:50.879Z,24.89
2024-04-19T12:36:50.827Z,24.90
2024-04-19T12:37:50.794Z,24.90
2024-04-19T12:38:51.183Z,24.89
2024-04-19T12:39:50.865Z,24.85
2024-04-19T12:40:50.824Z,24.86
2024-04-19T12:41:50.847Z,24.86
2024-04-19T12:42:50.931Z,24.83
2024-04-19T12:43:50.813Z,24.85
2024-04-19T12:44:50.814Z,24.82
2024-04-19T12:45:50.938Z,24.80
2024-04-19T12:46:50.840Z,24.79
2024-04-19T12:47:50.933Z,24.79
2024-04-19T12:48:51.610Z,24.79
2024-04-19T12:49:50.833Z,24.77
2024-04-19T12:50:50.836Z,24.77
2024-04-19T12:51:50.913Z,24.77
2024-04-19T12:52:50.889Z,24.77
2024-04-19T12:53:50.909Z,24.76
2024-04-19T12:54:51.144Z,24.77